createdAt,value
2023-02-27T00:01:15.120Z,73.07
2023-02-27T00:03:47.715Z,73.20
2023-02-27T00:06:20.316Z,73.21
2023-02-27T00:08:52.894Z,73.14
2023-02-27T00:11:25.982Z,73.80
2023-02-27T00:13:58.836Z,73.27
2023-02-27T00:16:31.398Z,73.72
2023-02-27T00:19:04.824Z,73.33
2023-02-27T00:21:37.857Z,73.66
2023-02-27T00:24:11.748Z,73.39
2023-02-27T00:26:44.372Z,73.31
2023-02-27T00:29:16.894Z,73.15
2023-02-27T00:31:49.501Z,73.79
2023-02-27T00:34:22.089Z,73.25
2023-02-27T00:36:54.597Z,73.19
2023-02-27T00:39:27.240Z,73.42
2023-02-27T00:41:59.851Z,73.09
2023-02-27T00:44:32.466Z,73.37
2023-02-27T00:47:05.102Z,73.62
2023-02-27T00:49:37.724Z,73.87
2023-02-27T00:52:10.346Z,73.23
2023-02-27T00:54:42.854Z,72.97
2023-02-27T00:57:15.643Z,72.81
2023-02-27T00:59:48.627Z,72.84
2023-02-27T01:02:21.397Z,72.18
2023-02-27T01:04:54.034Z,72.40
2023-02-27T01:07:26.557Z,73.51
2023-02-27T01:09:59.234Z,72.62
2023-02-27T01:12:31.915Z,72.87
2023-02-27T01:15:06.923Z,72.32
2023-02-27T01:17:40.052Z,72.47
2023-02-27T01:20:13.439Z,72.49
2023-02-27T01:22:46.065Z,73.05
2023-02-27T01:25:18.734Z,73.15
2023-02-27T01:27:51.259Z,72.34
2023-02-27T01:30:23.876Z,73.05
2023-02-27T01:32:56.411Z,73.23
2023-02-27T01:35:29.101Z,73.17
2023-02-27T01:38:02.055Z,73.63
2023-02-27T01:40:40.515Z,73.59
2023-02-27T01:43:18.835Z,73.12
2023-02-27T01:45:51.876Z,73.15
2023-02-27T01:48:31.598Z,73.45
2023-02-27T01:51:22.536Z,73.41
2023-02-27T01:53:56.348Z,73.66
2023-02-27T01:56:32.015Z,73.86
2023-02-27T01:59:10.648Z,74.15
2023-02-27T02:01:43.197Z,73.79
2023-02-27T02:04:29.919Z,73.94
2023-02-27T02:07:15.300Z,73.50
2023-02-27T02:09:55.305Z,73.89
2023-02-27T02:12:36.662Z,74.31
2023-02-27T02:15:09.920Z,73.79
2023-02-27T02:18:01.065Z,73.39
2023-02-27T02:21:33.630Z,73.93
2023-02-27T02:24:45.633Z,74.17
2023-02-27T02:27:47.307Z,74.75
2023-02-27T02:31:03.581Z,74.72
2023-02-27T02:34:20.933Z,74.50
2023-02-27T02:37:37.850Z,74.58
2023-02-27T02:40:44.393Z,74.53
2023-02-27T02:43:37.933Z,74.53
2023-02-27T02:46:15.799Z,74.69
2023-02-27T02:49:22.742Z,75.19
2023-02-27T02:52:27.108Z,74.66
2023-02-27T02:55:22.223Z,74.79
2023-02-27T02:58:43.435Z,74.85
2023-02-27T03:01:33.632Z,74.97
2023-02-27T03:04:14.306Z,75.88
2023-02-27T03:06:54.570Z,75.57
2023-02-27T03:09:36.966Z,75.24
2023-02-27T03:12:15.553Z,75.27
2023-02-27T03:15:18.588Z,74.70
2023-02-27T03:18:17.763Z,74.55
2023-02-27T03:21:02.045Z,74.48
2023-02-27T03:23:47.141Z,74.51
2023-02-27T03:26:29.660Z,74.87
2023-02-27T03:29:12.205Z,75.58
2023-02-27T03:31:53.287Z,75.19
2023-02-27T03:34:39.601Z,75.17
2023-02-27T03:37:56.754Z,75.44
2023-02-27T03:40:44.183Z,75.60
2023-02-27T03:43:34.919Z,76.10
2023-02-27T03:46:15.365Z,75.67
2023-02-27T03:48:48.209Z,75.30
2023-02-27T03:51:25.073Z,75.91
2023-02-27T03:54:30.518Z,75.58
2023-02-27T03:57:08.690Z,76.02
2023-02-27T03:59:42.043Z,75.19
2023-02-27T04:02:16.338Z,75.31
2023-02-27T04:04:48.844Z,76.32
2023-02-27T04:07:52.444Z,76.28
2023-02-27T04:10:54.590Z,76.66
2023-02-27T04:14:23.531Z,76.39
2023-02-27T04:17:09.450Z,77.04
2023-02-27T04:20:14.556Z,76.75
2023-02-27T04:22:54.664Z,77.00
2023-02-27T04:26:10.504Z,76.80
2023-02-27T04:29:03.577Z,76.81
2023-02-27T04:32:35.072Z,77.21
2023-02-27T04:35:29.384Z,77.48
2023-02-27T04:38:08.556Z,77.91
2023-02-27T04:40:58.089Z,77.89
2023-02-27T04:43:32.748Z,78.16
2023-02-27T04:46:10.595Z,78.38
2023-02-27T04:49:09.103Z,78.36
2023-02-27T04:52:00.995Z,78.84
2023-02-27T04:54:49.205Z,78.44
2023-02-27T04:57:34.820Z,78.30
2023-02-27T05:00:13.749Z,78.46
2023-02-27T05:02:58.735Z,78.17
2023-02-27T05:05:35.397Z,77.91
2023-02-27T05:08:26.204Z,77.92
2023-02-27T05:11:09.315Z,78.14
2023-02-27T05:13:51.859Z,77.91
2023-02-27T05:17:39.872Z,78.34
2023-02-27T05:20:16.074Z,78.85
2023-02-27T05:23:12.662Z,78.61
2023-02-27T05:26:19.817Z,79.24
2023-02-27T05:29:20.222Z,78.95
2023-02-27T05:32:05.961Z,78.87
2023-02-27T05:34:52.770Z,79.45
2023-02-27T05:37:35.820Z,79.47
2023-02-27T05:40:14.227Z,79.29
2023-02-27T05:43:02.132Z,78.98
2023-02-27T05:45:40.969Z,79.07
2023-02-27T05:48:22.447Z,79.44
2023-02-27T05:50:57.934Z,79.15
2023-02-27T05:53:37.811Z,79.37
2023-02-27T05:56:16.366Z,79.96
2023-02-27T05:59:07.979Z,79.76
2023-02-27T06:01:40.951Z,79.44
2023-02-27T06:04:13.696Z,79.82
2023-02-27T06:06:46.206Z,79.52
2023-02-27T06:09:19.751Z,79.72
2023-02-27T06:11:52.250Z,79.77
2023-02-27T06:14:24.745Z,79.96
2023-02-27T06:16:57.334Z,79.86
2023-02-27T06:19:29.937Z,80.20
2023-02-27T06:22:02.463Z,79.55
2023-02-27T06:24:35.118Z,79.31
2023-02-27T06:27:07.651Z,79.83
2023-02-27T06:29:40.342Z,79.84
2023-02-27T06:32:12.836Z,79.79
2023-02-27T06:34:45.572Z,80.25
2023-02-27T06:37:18.249Z,79.74
2023-02-27T06:39:51.132Z,79.77
2023-02-27T06:42:23.787Z,79.71
2023-02-27T06:44:56.302Z,79.49
2023-02-27T06:47:28.859Z,79.13
2023-02-27T06:50:02.116Z,79.44
2023-02-27T06:52:34.649Z,79.74
2023-02-27T06:55:08.900Z,79.74
2023-02-27T06:57:42.008Z,79.63
2023-02-27T07:00:16.040Z,80.26
2023-02-27T07:02:48.680Z,80.45
2023-02-27T07:05:21.535Z,80.11
2023-02-27T07:07:54.069Z,79.66
2023-02-27T07:10:26.690Z,79.68
2023-02-27T07:12:59.304Z,79.22
2023-02-27T07:15:31.787Z,80.34
2023-02-27T07:18:04.376Z,79.88
2023-02-27T07:20:37.129Z,79.76
2023-02-27T07:23:10.657Z,79.30
2023-02-27T07:25:43.299Z,79.72
2023-02-27T07:28:16.277Z,78.84
2023-02-27T07:30:48.848Z,78.22
2023-02-27T07:33:22.166Z,78.00
2023-02-27T07:35:54.711Z,78.24
2023-02-27T07:38:28.853Z,77.74
2023-02-27T07:41:01.358Z,77.59
2023-02-27T07:43:33.915Z,77.08
2023-02-27T07:46:06.512Z,77.27
2023-02-27T07:48:40.389Z,76.46
2023-02-27T07:51:13.139Z,77.35
2023-02-27T07:53:45.709Z,76.90
2023-02-27T07:56:18.276Z,76.46
2023-02-27T07:58:50.867Z,76.36
2023-02-27T08:01:23.461Z,75.85
2023-02-27T08:03:56.533Z,75.33
2023-02-27T08:06:30.007Z,74.90
2023-02-27T08:09:02.969Z,74.99
2023-02-27T08:11:35.467Z,74.31
2023-02-27T08:14:08.071Z,74.61
2023-02-27T08:16:40.876Z,73.07
2023-02-27T08:19:14.640Z,73.65
2023-02-27T08:21:47.220Z,74.11
2023-02-27T08:24:19.800Z,72.77
2023-02-27T08:26:52.785Z,72.21
2023-02-27T08:29:26.840Z,72.68
2023-02-27T08:32:02.180Z,72.31
2023-02-27T08:34:35.260Z,71.99
2023-02-27T08:37:07.778Z,71.58
2023-02-27T08:39:40.315Z,71.07
2023-02-27T08:42:12.881Z,70.25
2023-02-27T08:44:45.408Z,70.42
2023-02-27T08:47:18.820Z,69.65
2023-02-27T08:49:51.380Z,69.21
2023-02-27T08:52:24.995Z,69.74
2023-02-27T08:54:58.505Z,68.81
2023-02-27T08:57:31.311Z,68.21
2023-02-27T09:00:08.369Z,66.84
2023-02-27T09:02:42.056Z,67.48
2023-02-27T09:05:14.847Z,67.02
2023-02-27T09:07:47.571Z,67.17
2023-02-27T09:10:20.392Z,66.33
2023-02-27T09:12:53.826Z,66.44
2023-02-27T09:15:27.130Z,65.86
2023-02-27T09:18:03.131Z,65.55
2023-02-27T09:20:36.279Z,64.58
2023-02-27T09:23:08.940Z,65.32
2023-02-27T09:25:41.687Z,64.75
2023-02-27T09:28:15.047Z,65.33
2023-02-27T09:30:47.716Z,64.46
2023-02-27T09:33:20.495Z,64.20
2023-02-27T09:35:53.252Z,63.14
2023-02-27T09:38:26.862Z,63.61
2023-02-27T09:40:59.726Z,62.93
2023-02-27T09:43:49.632Z,63.12
2023-02-27T09:46:25.701Z,62.61
2023-02-27T09:49:01.811Z,62.27
2023-02-27T09:51:34.472Z,62.04
2023-02-27T09:54:07.248Z,61.67
2023-02-27T09:57:03.939Z,60.87
2023-02-27T10:00:00.051Z,60.32
2023-02-27T10:02:53.803Z,60.39
2023-02-27T10:06:11.186Z,60.35
2023-02-27T10:09:42.424Z,59.92
2023-02-27T10:12:42.704Z,59.62
2023-02-27T10:15:35.301Z,59.42
2023-02-27T10:18:28.293Z,58.75
2023-02-27T10:21:14.676Z,57.82
2023-02-27T10:23:59.274Z,58.20
2023-02-27T10:26:40.517Z,57.61
2023-02-27T10:29:32.827Z,56.99
2023-02-27T10:32:33.255Z,56.62
2023-02-27T10:35:16.547Z,56.41
2023-02-27T10:37:56.184Z,56.77
2023-02-27T10:40:30.581Z,56.32
2023-02-27T10:43:06.418Z,56.24
2023-02-27T10:45:39.121Z,55.67
2023-02-27T10:48:13.421Z,55.76
2023-02-27T10:50:52.298Z,55.89
2023-02-27T10:53:28.159Z,56.09
2023-02-27T10:56:06.858Z,56.06
2023-02-27T10:58:39.581Z,55.87
2023-02-27T11:01:13.340Z,55.93
2023-02-27T11:03:46.013Z,55.98
2023-02-27T11:06:26.618Z,55.00
2023-02-27T11:09:29.728Z,54.99
2023-02-27T11:12:27.180Z,54.60
2023-02-27T11:15:22.078Z,54.63
2023-02-27T11:17:55.225Z,54.41
2023-02-27T11:20:43.622Z,54.00
2023-02-27T11:23:25.157Z,54.04
2023-02-27T11:26:38.878Z,53.52
2023-02-27T11:29:25.209Z,53.52
2023-02-27T11:32:17.305Z,53.40
2023-02-27T11:35:01.255Z,53.44
2023-02-27T11:37:41.197Z,53.83
2023-02-27T11:40:21.368Z,53.19
2023-02-27T11:43:06.893Z,52.81
2023-02-27T11:46:04.806Z,52.38
2023-02-27T11:48:50.588Z,52.32
2023-02-27T11:52:21.685Z,51.71
2023-02-27T11:55:09.698Z,50.38
2023-02-27T11:57:48.830Z,50.22
2023-02-27T12:00:37.788Z,49.08
2023-02-27T12:03:45.380Z,48.87
2023-02-27T12:06:29.579Z,48.52
2023-02-27T12:09:32.861Z,48.70
2023-02-27T12:12:18.425Z,48.74
2023-02-27T12:15:31.249Z,48.98
2023-02-27T12:18:12.806Z,49.88
2023-02-27T12:20:57.630Z,49.51
2023-02-27T12:23:55.852Z,49.12
2023-02-27T12:26:43.684Z,49.07
2023-02-27T12:30:05.309Z,48.72
2023-02-27T12:32:50.412Z,48.78
2023-02-27T12:35:36.009Z,48.75
2023-02-27T12:38:14.883Z,48.27
2023-02-27T12:41:27.540Z,48.79
2023-02-27T12:44:44.654Z,48.86
2023-02-27T12:48:13.552Z,48.12
2023-02-27T12:51:11.125Z,46.98
2023-02-27T12:54:33.524Z,47.34
2023-02-27T12:57:32.327Z,47.42
2023-02-27T13:00:20.811Z,46.23
2023-02-27T13:03:20.743Z,46.10
2023-02-27T13:06:10.757Z,46.08
2023-02-27T13:08:58.445Z,46.16
2023-02-27T13:11:54.711Z,45.79
2023-02-27T13:15:01.218Z,45.85
2023-02-27T13:17:48.619Z,47.22
2023-02-27T13:20:21.120Z,47.28
2023-02-27T13:23:19.556Z,48.60
2023-02-27T13:25:56.592Z,47.73
2023-02-27T13:28:31.275Z,48.04
2023-02-27T13:31:19.654Z,47.70
2023-02-27T13:34:26.466Z,47.35
2023-02-27T13:37:09.013Z,47.29
2023-02-27T13:39:46.060Z,45.92
2023-02-27T13:42:27.956Z,46.25
2023-02-27T13:45:04.732Z,45.75
2023-02-27T13:47:40.749Z,44.98
2023-02-27T13:50:21.226Z,44.99
2023-02-27T13:52:54.165Z,45.42
2023-02-27T13:55:37.713Z,45.14
2023-02-27T13:58:19.303Z,45.35
2023-02-27T14:01:01.764Z,44.72
2023-02-27T14:03:34.692Z,44.30
2023-02-27T14:06:11.994Z,44.72
2023-02-27T14:08:52.219Z,45.03
2023-02-27T14:11:39.722Z,44.73
2023-02-27T14:14:36.430Z,44.53
2023-02-27T14:17:14.106Z,44.55
2023-02-27T14:19:57.003Z,45.57
2023-02-27T14:22:38.732Z,45.21
2023-02-27T14:25:33.666Z,46.30
2023-02-27T14:28:26.012Z,46.74
2023-02-27T14:31:32.484Z,46.22
2023-02-27T14:34:06.693Z,45.27
2023-02-27T14:36:54.763Z,45.11
2023-02-27T14:39:35.623Z,43.87
2023-02-27T14:42:19.415Z,43.65
2023-02-27T14:44:53.369Z,44.39
2023-02-27T14:47:37.820Z,43.51
2023-02-27T14:50:41.478Z,44.30
2023-02-27T14:53:26.501Z,44.42
2023-02-27T14:56:01.048Z,44.90
2023-02-27T14:58:33.672Z,45.59
2023-02-27T15:01:09.854Z,45.64
2023-02-27T15:03:49.208Z,46.21
2023-02-27T15:06:35.899Z,46.81
2023-02-27T15:09:08.808Z,45.78
2023-02-27T15:11:43.190Z,45.93
2023-02-27T15:14:34.509Z,45.75
2023-02-27T15:17:27.513Z,46.82
2023-02-27T15:20:00.094Z,46.10
2023-02-27T15:22:39.980Z,45.45
2023-02-27T15:25:39.588Z,45.72
2023-02-27T15:28:39.332Z,45.20
2023-02-27T15:31:22.782Z,45.64
2023-02-27T15:33:56.940Z,45.94
2023-02-27T15:36:34.616Z,46.34
2023-02-27T15:39:23.756Z,44.93
2023-02-27T15:42:00.950Z,45.42
2023-02-27T15:44:41.525Z,45.87
2023-02-27T15:47:33.025Z,46.26
2023-02-27T15:50:08.548Z,46.60
2023-02-27T15:52:50.940Z,47.22
2023-02-27T15:55:32.164Z,47.86
2023-02-27T15:58:19.165Z,47.47
2023-02-27T16:01:02.274Z,48.03
2023-02-27T16:03:44.919Z,47.70
2023-02-27T16:06:28.269Z,48.69
2023-02-27T16:09:25.075Z,48.80
2023-02-27T16:12:24.102Z,48.75
2023-02-27T16:15:27.641Z,49.24
2023-02-27T16:18:06.783Z,49.14
2023-02-27T16:20:54.647Z,48.74
2023-02-27T16:23:33.889Z,49.25
2023-02-27T16:26:30.836Z,48.94
2023-02-27T16:29:20.682Z,48.75
2023-02-27T16:31:57.013Z,49.47
2023-02-27T16:34:45.365Z,49.30
2023-02-27T16:37:29.840Z,49.72
2023-02-27T16:40:17.270Z,49.74
2023-02-27T16:42:51.857Z,49.50
2023-02-27T16:45:28.491Z,49.07
2023-02-27T16:48:01.377Z,49.08
2023-02-27T16:50:41.022Z,49.71
2023-02-27T16:53:13.597Z,50.37
2023-02-27T16:55:46.122Z,50.73
2023-02-27T16:58:18.939Z,51.31
2023-02-27T17:00:51.573Z,51.84
2023-02-27T17:03:24.114Z,52.18
2023-02-27T17:05:57.772Z,52.22
2023-02-27T17:08:31.401Z,52.38
2023-02-27T17:11:05.437Z,52.74
2023-02-27T17:13:38.110Z,53.66
2023-02-27T17:16:12.229Z,54.05
2023-02-27T17:18:44.801Z,54.01
2023-02-27T17:21:17.400Z,54.08
2023-02-27T17:23:49.974Z,54.50
2023-02-27T17:26:22.665Z,54.63
2023-02-27T17:28:56.374Z,55.16
2023-02-27T17:31:29.448Z,54.92
2023-02-27T17:34:05.160Z,55.33
2023-02-27T17:36:38.588Z,55.51
2023-02-27T17:39:14.756Z,56.07
2023-02-27T17:41:47.646Z,56.79
2023-02-27T17:44:20.285Z,56.43
2023-02-27T17:46:53.063Z,56.49
2023-02-27T17:49:25.611Z,57.20
2023-02-27T17:52:00.434Z,57.09
2023-02-27T17:54:34.779Z,57.47
2023-02-27T17:57:09.185Z,58.32
2023-02-27T17:59:43.209Z,58.18
2023-02-27T18:02:15.842Z,58.24
2023-02-27T18:04:48.774Z,59.77
2023-02-27T18:07:21.284Z,60.13
2023-02-27T18:09:53.791Z,60.73
2023-02-27T18:12:26.473Z,62.61
2023-02-27T18:14:59.036Z,62.36
2023-02-27T18:17:31.615Z,62.44
2023-02-27T18:20:05.298Z,62.05
2023-02-27T18:22:38.196Z,60.55
2023-02-27T18:25:11.370Z,60.82
2023-02-27T18:27:43.903Z,61.27
2023-02-27T18:30:19.462Z,61.04
2023-02-27T18:32:56.608Z,60.81
2023-02-27T18:35:29.266Z,60.37
2023-02-27T18:38:03.172Z,60.96
2023-02-27T18:40:35.755Z,61.25
2023-02-27T18:43:10.388Z,61.27
2023-02-27T18:45:43.186Z,61.38
2023-02-27T18:48:15.915Z,61.18
2023-02-27T18:50:48.466Z,60.71
2023-02-27T18:53:20.976Z,61.04
2023-02-27T18:56:03.215Z,61.04
2023-02-27T18:58:36.447Z,61.02
2023-02-27T19:01:23.471Z,60.55
2023-02-27T19:04:03.309Z,61.25
2023-02-27T19:06:42.249Z,61.52
2023-02-27T19:09:16.231Z,62.12
2023-02-27T19:11:48.998Z,62.06
2023-02-27T19:14:21.513Z,62.83
2023-02-27T19:16:56.043Z,62.07
2023-02-27T19:19:28.911Z,62.16
2023-02-27T19:22:01.469Z,62.07
2023-02-27T19:24:34.031Z,62.96
2023-02-27T19:27:07.609Z,63.49
2023-02-27T19:29:40.183Z,63.16
2023-02-27T19:32:14.644Z,63.53
2023-02-27T19:34:47.349Z,63.53
2023-02-27T19:37:19.877Z,63.01
2023-02-27T19:39:52.490Z,63.29
2023-02-27T19:42:25.916Z,63.79
2023-02-27T19:44:58.484Z,63.33
2023-02-27T19:47:31.377Z,63.29
2023-02-27T19:50:04.622Z,64.33
2023-02-27T19:52:37.983Z,63.63
2023-02-27T19:55:11.224Z,64.06
2023-02-27T19:57:43.842Z,64.66
2023-02-27T20:00:17.626Z,63.92
2023-02-27T20:02:50.115Z,63.93
2023-02-27T20:05:24.823Z,63.90
2023-02-27T20:07:57.585Z,64.55
2023-02-27T20:10:30.178Z,64.93
2023-02-27T20:13:02.890Z,64.83
2023-02-27T20:15:36.023Z,64.95
2023-02-27T20:18:08.674Z,64.67
2023-02-27T20:20:41.773Z,65.29
2023-02-27T20:23:15.405Z,65.15
2023-02-27T20:25:47.880Z,65.51
2023-02-27T20:28:21.624Z,65.75
2023-02-27T20:30:54.516Z,65.34
2023-02-27T20:33:27.115Z,65.66
2023-02-27T20:36:07.303Z,66.15
2023-02-27T20:38:41.230Z,66.68
2023-02-27T20:41:22.254Z,66.08
2023-02-27T20:43:54.767Z,66.19
2023-02-27T20:46:30.244Z,67.59
2023-02-27T20:49:05.206Z,67.62
2023-02-27T20:51:40.036Z,67.80
2023-02-27T20:54:19.952Z,68.11
2023-02-27T20:56:54.263Z,67.84
2023-02-27T20:59:26.873Z,68.94
2023-02-27T21:01:59.737Z,68.92
2023-02-27T21:04:47.147Z,69.16
2023-02-27T21:07:21.706Z,69.09
2023-02-27T21:09:54.878Z,69.69
2023-02-27T21:12:27.513Z,69.72
2023-02-27T21:15:00.074Z,69.99
2023-02-27T21:17:33.391Z,70.66
2023-02-27T21:20:07.078Z,70.91
2023-02-27T21:22:39.619Z,70.62
2023-02-27T21:25:12.182Z,71.33
2023-02-27T21:27:44.753Z,71.43
2023-02-27T21:30:19.327Z,71.35
2023-02-27T21:32:51.864Z,70.90
2023-02-27T21:35:24.680Z,72.23
2023-02-27T21:37:57.223Z,71.95
2023-02-27T21:40:29.763Z,72.46
2023-02-27T21:43:02.217Z,72.07
2023-02-27T21:45:41.432Z,72.44
2023-02-27T21:48:14.046Z,72.39
2023-02-27T21:50:47.949Z,72.31
2023-02-27T21:53:20.456Z,73.09
2023-02-27T21:55:54.595Z,72.11
2023-02-27T21:58:27.150Z,73.34
2023-02-27T22:01:00.334Z,73.09
2023-02-27T22:03:35.656Z,72.83
2023-02-27T22:06:09.328Z,73.70
2023-02-27T22:08:42.290Z,73.00
2023-02-27T22:11:14.794Z,74.03
2023-02-27T22:13:47.317Z,73.51
2023-02-27T22:16:21.091Z,73.26
2023-02-27T22:18:53.710Z,72.88
2023-02-27T22:21:28.034Z,73.16
2023-02-27T22:24:01.026Z,74.05
2023-02-27T22:26:34.354Z,73.33
2023-02-27T22:29:07.307Z,73.52
2023-02-27T22:31:40.123Z,73.21
2023-02-27T22:34:18.436Z,72.64
2023-02-27T22:36:52.649Z,73.24
2023-02-27T22:39:25.581Z,72.97
2023-02-27T22:41:58.205Z,73.47
2023-02-27T22:44:30.732Z,73.24
2023-02-27T22:47:03.304Z,73.31
2023-02-27T22:49:37.037Z,73.66
2023-02-27T22:52:10.501Z,73.61
2023-02-27T22:54:43.310Z,73.64
2023-02-27T22:57:16.252Z,74.03
2023-02-27T22:59:52.072Z,73.84
2023-02-27T23:02:25.162Z,74.26
2023-02-27T23:04:57.675Z,74.73
2023-02-27T23:07:30.244Z,74.84
2023-02-27T23:10:05.006Z,75.75
2023-02-27T23:12:37.595Z,75.38
2023-02-27T23:15:10.771Z,74.97
2023-02-27T23:17:52.890Z,74.52
2023-02-27T23:20:30.590Z,74.31
2023-02-27T23:23:05.339Z,74.71
2023-02-27T23:25:38.911Z,74.62
2023-02-27T23:28:12.098Z,74.08
2023-02-27T23:30:44.627Z,74.79
2023-02-27T23:33:17.169Z,74.68
2023-02-27T23:35:49.707Z,74.81
2023-02-27T23:38:22.280Z,75.28
2023-02-27T23:40:55.245Z,75.03
2023-02-27T23:43:27.736Z,75.28
2023-02-27T23:46:14.587Z,75.95
2023-02-27T23:48:47.925Z,75.73
2023-02-27T23:51:20.497Z,75.70
2023-02-27T23:53:52.987Z,75.82
2023-02-27T23:56:29.465Z,75.43
2023-02-27T23:59:05.889Z,75.89
